createdAt,value
2022-09-27T00:00:00.747Z,1.40
2022-09-27T00:02:27.425Z,1.30
2022-09-27T00:04:55.643Z,1.23
2022-09-27T00:07:22.163Z,1.00
2022-09-27T00:09:48.814Z,0.90
2022-09-27T00:12:15.532Z,1.17
2022-09-27T00:14:42.537Z,1.00
2022-09-27T00:17:09.684Z,1.20
2022-09-27T00:19:36.249Z,1.20
2022-09-27T00:22:03.750Z,1.10
2022-09-27T00:24:31.730Z,1.23
2022-09-27T00:26:58.311Z,1.20
2022-09-27T00:29:25.101Z,1.30
2022-09-27T00:31:52.398Z,1.60
2022-09-27T00:34:20.676Z,1.40
2022-09-27T00:36:47.824Z,1.00
2022-09-27T00:39:14.924Z,1.20
2022-09-27T00:41:42.476Z,1.37
2022-09-27T00:44:29.326Z,1.33
2022-09-27T00:47:01.404Z,1.40
2022-09-27T00:49:41.810Z,1.37
2022-09-27T00:52:11.335Z,1.60
2022-09-27T00:54:40.565Z,1.57
2022-09-27T00:57:07.248Z,1.50
2022-09-27T00:59:35.745Z,1.80
2022-09-27T01:02:04.615Z,1.50
2022-09-27T01:04:33.076Z,1.40
2022-09-27T01:07:00.225Z,1.50
2022-09-27T01:09:27.270Z,1.40
2022-09-27T01:12:13.408Z,1.40
2022-09-27T01:14:52.309Z,1.20
2022-09-27T01:17:29.023Z,1.10
2022-09-27T01:20:15.116Z,1.20
2022-09-27T01:23:00.044Z,0.70
2022-09-27T01:25:26.780Z,0.80
2022-09-27T01:28:11.794Z,1.07
2022-09-27T01:30:43.967Z,0.70
2022-09-27T01:33:26.474Z,1.03
2022-09-27T01:36:16.110Z,1.10
2022-09-27T01:38:56.439Z,0.93
2022-09-27T01:41:33.488Z,1.00
2022-09-27T01:44:17.410Z,0.80
2022-09-27T01:46:52.502Z,1.03
2022-09-27T01:49:52.378Z,1.00
2022-09-27T01:52:20.558Z,1.17
2022-09-27T01:54:52.971Z,1.00
2022-09-27T01:57:33.694Z,1.30
2022-09-27T02:00:04.380Z,1.03
2022-09-27T02:02:50.678Z,1.20
2022-09-27T02:05:22.593Z,1.53
2022-09-27T02:07:58.141Z,1.40
2022-09-27T02:10:28.123Z,1.27
2022-09-27T02:12:58.383Z,1.20
2022-09-27T02:15:26.639Z,1.60
2022-09-27T02:18:16.247Z,1.97
2022-09-27T02:20:49.815Z,1.57
2022-09-27T02:23:35.071Z,1.40
2022-09-27T02:26:08.201Z,1.40
2022-09-27T02:28:35.228Z,1.60
2022-09-27T02:31:02.570Z,1.17
2022-09-27T02:33:36.339Z,1.03
2022-09-27T02:36:03.883Z,1.17
2022-09-27T02:38:30.683Z,1.43
2022-09-27T02:41:00.262Z,1.20
2022-09-27T02:43:28.723Z,1.17
2022-09-27T02:46:14.590Z,1.20
2022-09-27T02:48:53.813Z,1.00
2022-09-27T02:51:36.790Z,1.17
2022-09-27T02:54:10.514Z,1.30
2022-09-27T02:57:24.657Z,1.00
2022-09-27T03:00:31.436Z,1.30
2022-09-27T03:03:27.678Z,0.80
2022-09-27T03:06:02.633Z,0.80
2022-09-27T03:08:30.471Z,1.00
2022-09-27T03:10:57.167Z,1.10
2022-09-27T03:13:23.873Z,1.30
2022-09-27T03:15:50.689Z,1.10
2022-09-27T03:18:18.949Z,1.00
2022-09-27T03:21:04.415Z,1.00
2022-09-27T03:23:31.105Z,0.70
2022-09-27T03:25:58.116Z,0.97
2022-09-27T03:28:25.789Z,0.80
2022-09-27T03:30:52.893Z,0.70
2022-09-27T03:33:38.214Z,0.90
2022-09-27T03:36:11.993Z,0.60
2022-09-27T03:38:38.863Z,0.70
2022-09-27T03:41:08.325Z,0.57
2022-09-27T03:43:35.637Z,0.60
2022-09-27T03:46:03.915Z,0.73
2022-09-27T03:48:31.288Z,0.90
2022-09-27T03:50:57.816Z,0.90
2022-09-27T03:53:28.467Z,1.00
2022-09-27T03:55:55.192Z,1.00
2022-09-27T03:58:21.829Z,1.10
2022-09-27T04:00:49.568Z,1.07
2022-09-27T04:03:17.603Z,1.20
2022-09-27T04:06:10.399Z,0.87
2022-09-27T04:08:41.418Z,0.93
2022-09-27T04:11:09.903Z,0.83
2022-09-27T04:13:38.713Z,0.80
2022-09-27T04:16:05.466Z,0.67
2022-09-27T04:18:49.723Z,1.03
2022-09-27T04:21:45.720Z,0.87
2022-09-27T04:24:13.575Z,0.73
2022-09-27T04:26:49.209Z,0.80
2022-09-27T04:29:22.135Z,0.90
2022-09-27T04:31:52.073Z,0.90
2022-09-27T04:35:03.570Z,0.90
2022-09-27T04:37:30.598Z,1.27
2022-09-27T04:40:01.715Z,1.20
2022-09-27T04:42:29.718Z,1.40
2022-09-27T04:44:56.473Z,1.57
2022-09-27T04:47:23.775Z,1.67
2022-09-27T04:49:51.382Z,1.40
2022-09-27T04:52:18.351Z,1.60
2022-09-27T04:54:45.050Z,2.10
2022-09-27T04:57:13.551Z,1.57
2022-09-27T04:59:42.614Z,1.30
2022-09-27T05:02:09.435Z,1.73
2022-09-27T05:05:00.155Z,1.43
2022-09-27T05:07:34.891Z,1.40
2022-09-27T05:10:06.547Z,1.80
2022-09-27T05:12:33.391Z,1.50
2022-09-27T05:15:01.988Z,1.50
2022-09-27T05:17:47.367Z,1.20
2022-09-27T05:20:32.192Z,1.50
2022-09-27T05:23:09.492Z,1.30
2022-09-27T05:25:36.343Z,1.70
2022-09-27T05:28:02.879Z,1.50
2022-09-27T05:30:30.250Z,1.30
2022-09-27T05:33:05.621Z,1.60
2022-09-27T05:35:54.530Z,1.20
2022-09-27T05:38:30.129Z,1.60
2022-09-27T05:40:59.410Z,1.50
2022-09-27T05:43:26.235Z,1.47
2022-09-27T05:45:53.649Z,1.30
2022-09-27T05:48:23.105Z,1.30
2022-09-27T05:50:55.693Z,1.10
2022-09-27T05:53:22.396Z,1.33
2022-09-27T05:55:52.632Z,1.60
2022-09-27T05:58:25.606Z,1.53
2022-09-27T06:01:06.064Z,1.40
2022-09-27T06:03:55.767Z,1.30
2022-09-27T06:06:40.886Z,1.50
2022-09-27T06:09:12.587Z,1.20
2022-09-27T06:11:41.832Z,1.50
2022-09-27T06:14:15.158Z,1.10
2022-09-27T06:16:58.244Z,1.20
2022-09-27T06:19:28.859Z,1.07
2022-09-27T06:21:56.323Z,0.93
2022-09-27T06:24:27.158Z,1.30
2022-09-27T06:26:54.378Z,1.10
2022-09-27T06:29:37.530Z,1.40
2022-09-27T06:32:08.466Z,1.00
2022-09-27T06:35:01.278Z,1.43
2022-09-27T06:37:28.721Z,1.00
2022-09-27T06:39:56.041Z,1.00
2022-09-27T06:42:50.007Z,1.10
2022-09-27T06:45:42.962Z,1.03
2022-09-27T06:48:32.460Z,1.23
2022-09-27T06:51:10.997Z,1.10
2022-09-27T06:53:40.309Z,0.93
2022-09-27T06:56:07.359Z,0.90
2022-09-27T06:59:14.289Z,0.73
2022-09-27T07:01:45.725Z,0.77
2022-09-27T07:04:30.550Z,0.80
2022-09-27T07:07:14.433Z,0.90
2022-09-27T07:09:46.413Z,0.80
2022-09-27T07:12:14.038Z,1.03
2022-09-27T07:14:42.450Z,1.00
2022-09-27T07:17:15.644Z,0.90
2022-09-27T07:19:44.517Z,0.90
2022-09-27T07:22:12.394Z,0.60
2022-09-27T07:24:41.108Z,0.83
2022-09-27T07:27:08.104Z,0.77
2022-09-27T07:29:35.154Z,0.90
2022-09-27T07:32:02.290Z,0.60
2022-09-27T07:34:28.862Z,1.20
2022-09-27T07:36:59.192Z,0.80
2022-09-27T07:39:29.336Z,0.50
2022-09-27T07:41:56.127Z,0.70
2022-09-27T07:44:23.000Z,0.90
2022-09-27T07:47:08.509Z,0.90
2022-09-27T07:49:53.777Z,1.00
2022-09-27T07:52:43.512Z,0.80
2022-09-27T07:55:34.927Z,1.00
2022-09-27T07:58:13.819Z,0.53
2022-09-27T08:00:41.199Z,0.70
2022-09-27T08:03:17.770Z,0.60
2022-09-27T08:05:47.481Z,0.53
2022-09-27T08:08:15.352Z,0.40
2022-09-27T08:10:47.741Z,0.50
2022-09-27T08:13:17.987Z,0.50
2022-09-27T08:15:45.042Z,0.40
2022-09-27T08:18:13.366Z,0.60
2022-09-27T08:20:58.947Z,0.80
2022-09-27T08:23:29.047Z,0.57
2022-09-27T08:26:11.884Z,0.70
2022-09-27T08:28:54.148Z,0.53
2022-09-27T08:31:25.728Z,0.70
2022-09-27T08:33:57.581Z,0.67
2022-09-27T08:36:24.729Z,0.53
2022-09-27T08:38:51.549Z,0.60
2022-09-27T08:41:29.846Z,0.57
2022-09-27T08:44:10.164Z,0.70
2022-09-27T08:47:00.082Z,0.50
2022-09-27T08:49:39.356Z,0.70
2022-09-27T08:52:08.318Z,0.70
2022-09-27T08:54:36.186Z,0.80
2022-09-27T08:57:10.435Z,0.87
2022-09-27T08:59:41.143Z,0.67
2022-09-27T09:02:19.733Z,0.90
2022-09-27T09:04:51.606Z,0.73
2022-09-27T09:07:28.959Z,0.80
2022-09-27T09:09:56.195Z,0.80
2022-09-27T09:12:50.134Z,0.70
2022-09-27T09:15:30.904Z,0.70
2022-09-27T09:18:06.149Z,0.80
2022-09-27T09:21:05.451Z,0.77
2022-09-27T09:23:48.179Z,1.17
2022-09-27T09:26:21.110Z,0.80
2022-09-27T09:28:55.983Z,0.93
2022-09-27T09:31:25.340Z,1.00
2022-09-27T09:33:51.974Z,1.00
2022-09-27T09:36:38.190Z,1.10
2022-09-27T09:39:22.650Z,0.60
2022-09-27T09:42:13.094Z,1.20
2022-09-27T09:44:54.188Z,1.10
2022-09-27T09:47:27.009Z,0.93
2022-09-27T09:53:08.227Z,1.30
2022-09-27T09:55:36.741Z,0.77
2022-09-27T09:58:19.946Z,0.90
2022-09-27T10:00:50.850Z,0.90
2022-09-27T10:03:17.757Z,0.97
2022-09-27T10:05:45.295Z,0.80
2022-09-27T10:08:20.038Z,0.70
2022-09-27T10:10:50.710Z,1.07
2022-09-27T10:13:45.539Z,0.80
2022-09-27T10:16:14.280Z,0.70
2022-09-27T10:18:45.082Z,0.90
2022-09-27T10:21:23.442Z,0.80
2022-09-27T10:24:04.612Z,1.00
2022-09-27T10:26:59.547Z,0.77
2022-09-27T10:29:37.013Z,0.80
2022-09-27T10:32:18.995Z,0.87
2022-09-27T10:34:45.896Z,1.10
2022-09-27T10:37:13.273Z,1.07
2022-09-27T10:39:53.737Z,1.07
2022-09-27T10:42:23.274Z,1.10
2022-09-27T10:44:50.142Z,0.93
2022-09-27T10:47:30.808Z,0.70
2022-09-27T10:50:06.854Z,0.80
2022-09-27T10:53:16.565Z,1.20
2022-09-27T10:55:48.594Z,1.00
2022-09-27T10:58:26.991Z,0.90
2022-09-27T11:00:58.320Z,1.07
2022-09-27T11:03:26.498Z,1.27
2022-09-27T11:05:55.564Z,1.10
2022-09-27T11:08:26.680Z,1.50
2022-09-27T11:11:28.563Z,1.23
2022-09-27T11:14:33.877Z,1.33
2022-09-27T11:17:09.993Z,1.27
2022-09-27T11:19:40.896Z,1.00
2022-09-27T11:22:22.597Z,1.00
2022-09-27T11:25:09.976Z,1.23
2022-09-27T11:27:51.582Z,1.70
2022-09-27T11:30:23.996Z,1.23
2022-09-27T11:33:31.336Z,1.20
2022-09-27T11:36:05.253Z,1.60
2022-09-27T11:38:52.876Z,1.00
2022-09-27T11:41:30.335Z,1.27
2022-09-27T11:44:18.667Z,1.10
2022-09-27T11:46:51.166Z,1.40
2022-09-27T11:49:31.320Z,1.10
2022-09-27T11:52:24.334Z,1.30
2022-09-27T11:54:51.185Z,1.20
2022-09-27T11:57:28.799Z,1.27
2022-09-27T12:00:10.728Z,0.93
2022-09-27T12:03:04.005Z,1.07
2022-09-27T12:05:57.773Z,1.30
2022-09-27T12:08:30.502Z,1.23
2022-09-27T12:11:09.208Z,1.40
2022-09-27T12:13:39.610Z,1.03
2022-09-27T12:16:07.416Z,0.93
2022-09-27T12:18:41.878Z,1.30
2022-09-27T12:21:25.292Z,1.40
2022-09-27T12:23:58.454Z,1.13
2022-09-27T12:26:40.762Z,1.37
2022-09-27T12:29:26.354Z,1.47
2022-09-27T12:32:14.059Z,1.30
2022-09-27T12:34:47.287Z,1.30
2022-09-27T12:40:40.616Z,1.27
2022-09-27T12:43:19.865Z,1.30
2022-09-27T12:46:08.502Z,0.97
2022-09-27T12:48:39.059Z,1.03
2022-09-27T12:51:12.645Z,1.30
2022-09-27T12:53:51.935Z,1.03
2022-09-27T12:56:37.586Z,1.30
2022-09-27T12:59:05.081Z,0.90
2022-09-27T13:01:53.585Z,0.80
2022-09-27T13:04:25.811Z,0.70
2022-09-27T13:07:05.961Z,0.60
2022-09-27T13:09:43.937Z,0.60
2022-09-27T13:12:16.282Z,0.90
2022-09-27T13:14:52.659Z,1.10
2022-09-27T13:17:40.887Z,0.60
2022-09-27T13:20:28.938Z,0.70
2022-09-27T13:23:00.377Z,0.87
2022-09-27T13:25:55.966Z,0.97
2022-09-27T13:28:58.758Z,0.77
2022-09-27T13:31:51.175Z,1.07
2022-09-27T13:34:39.638Z,0.93
2022-09-27T13:37:26.363Z,0.80
2022-09-27T13:40:11.503Z,0.80
2022-09-27T13:43:08.152Z,0.60
2022-09-27T13:45:49.220Z,0.83
2022-09-27T13:48:17.851Z,0.70
2022-09-27T13:50:44.733Z,0.63
2022-09-27T13:53:25.140Z,0.50
2022-09-27T13:55:52.761Z,0.50
2022-09-27T13:58:37.191Z,0.60
2022-09-27T14:04:22.544Z,0.53
2022-09-27T14:06:50.875Z,0.57
2022-09-27T14:09:20.439Z,0.40
2022-09-27T14:11:54.865Z,0.60
2022-09-27T14:14:26.364Z,0.70
2022-09-27T14:16:58.743Z,0.63
2022-09-27T14:19:26.113Z,0.70
2022-09-27T14:21:53.431Z,0.63
2022-09-27T14:24:30.825Z,0.77
2022-09-27T14:27:15.964Z,0.80
2022-09-27T14:29:46.573Z,0.67
2022-09-27T14:32:18.934Z,0.80
2022-09-27T14:35:07.452Z,0.87
2022-09-27T14:37:35.737Z,0.70
2022-09-27T14:40:19.006Z,0.70
2022-09-27T14:42:45.929Z,0.70
2022-09-27T14:45:22.961Z,1.00
2022-09-27T14:47:50.944Z,0.60
2022-09-27T14:50:31.775Z,0.80
2022-09-27T14:53:00.768Z,0.83
2022-09-27T14:55:28.843Z,0.70
2022-09-27T14:57:59.265Z,1.17
2022-09-27T15:00:28.949Z,0.80
2022-09-27T15:02:56.673Z,0.90
2022-09-27T15:05:28.347Z,1.10
2022-09-27T15:07:58.210Z,0.87
2022-09-27T15:10:27.872Z,0.80
2022-09-27T15:12:58.014Z,1.30
2022-09-27T15:15:27.107Z,0.90
2022-09-27T15:17:55.523Z,1.00
2022-09-27T15:20:24.988Z,0.90
2022-09-27T15:22:52.352Z,1.00
2022-09-27T15:25:20.018Z,1.07
2022-09-27T15:27:54.031Z,0.90
2022-09-27T15:30:30.065Z,0.80
2022-09-27T15:32:57.317Z,0.60
2022-09-27T15:35:25.481Z,0.60
2022-09-27T15:37:52.351Z,0.60
2022-09-27T15:40:19.822Z,0.80
2022-09-27T15:43:00.674Z,0.60
2022-09-27T15:45:31.257Z,1.30
2022-09-27T15:48:06.061Z,1.20
2022-09-27T15:50:33.881Z,0.80
2022-09-27T15:53:04.053Z,1.30
2022-09-27T15:55:32.471Z,2.10
2022-09-27T15:58:02.268Z,2.43
2022-09-27T16:00:30.183Z,2.37
2022-09-27T16:02:57.355Z,4.40
2022-09-27T16:05:24.503Z,1.50
2022-09-27T16:07:51.911Z,1.20
2022-09-27T16:10:23.668Z,1.10
2022-09-27T16:12:51.191Z,1.10
2022-09-27T16:15:17.722Z,1.73
2022-09-27T16:17:44.350Z,1.40
2022-09-27T16:20:17.535Z,1.10
2022-09-27T16:22:45.280Z,0.90
2022-09-27T16:25:12.330Z,1.33
2022-09-27T16:27:38.970Z,1.10
2022-09-27T16:30:07.671Z,1.20
2022-09-27T16:32:35.866Z,0.80
2022-09-27T16:35:03.314Z,1.30
2022-09-27T16:37:30.491Z,1.17
2022-09-27T16:39:57.582Z,1.23
2022-09-27T16:42:24.402Z,0.90
2022-09-27T16:44:52.848Z,1.50
2022-09-27T16:47:21.385Z,1.40
2022-09-27T16:50:07.895Z,1.80
2022-09-27T16:52:35.059Z,1.10
2022-09-27T16:55:02.189Z,1.33
2022-09-27T16:57:30.008Z,1.10
2022-09-27T16:59:57.547Z,1.80
2022-09-27T17:02:24.622Z,1.67
2022-09-27T17:04:53.577Z,1.30
2022-09-27T17:07:20.643Z,1.60
2022-09-27T17:09:47.363Z,1.67
2022-09-27T17:15:07.745Z,1.73
2022-09-27T17:17:34.329Z,2.00
2022-09-27T17:20:01.312Z,2.93
2022-09-27T17:22:27.965Z,1.63
2022-09-27T17:24:57.261Z,1.80
2022-09-27T17:27:27.285Z,2.00
2022-09-27T17:29:58.365Z,1.67
2022-09-27T17:32:25.506Z,2.00
2022-09-27T17:34:52.345Z,2.20
2022-09-27T17:37:19.487Z,2.30
2022-09-27T17:39:46.319Z,2.77
2022-09-27T17:42:13.086Z,2.17
2022-09-27T17:44:41.329Z,2.60
2022-09-27T17:47:27.590Z,3.17
2022-09-27T17:50:13.248Z,1.90
2022-09-27T17:52:39.955Z,1.63
2022-09-27T17:55:06.779Z,2.03
2022-09-27T17:57:34.671Z,2.00
2022-09-27T18:00:01.542Z,2.87
2022-09-27T18:02:28.429Z,1.60
2022-09-27T18:04:55.481Z,1.60
2022-09-27T18:07:22.688Z,1.90
2022-09-27T18:09:51.440Z,3.63
2022-09-27T18:12:18.534Z,2.37
2022-09-27T18:14:45.980Z,2.63
2022-09-27T18:17:13.757Z,2.30
2022-09-27T18:19:40.468Z,2.83
2022-09-27T18:22:07.633Z,3.43
2022-09-27T18:24:34.476Z,1.87
2022-09-27T18:27:01.287Z,3.37
2022-09-27T18:29:28.891Z,2.30
2022-09-27T18:31:55.767Z,2.87
2022-09-27T18:34:24.192Z,2.63
2022-09-27T18:36:50.871Z,2.53
2022-09-27T18:39:19.730Z,2.47
2022-09-27T18:41:50.089Z,2.87
2022-09-27T18:44:17.655Z,2.77
2022-09-27T18:46:44.440Z,2.97
2022-09-27T18:49:15.004Z,2.73
2022-09-27T18:51:44.838Z,2.73
2022-09-27T18:54:13.699Z,2.77
2022-09-27T18:56:43.334Z,2.60
2022-09-27T18:59:10.360Z,2.97
2022-09-27T19:01:41.676Z,2.53
2022-09-27T19:04:09.388Z,2.57
2022-09-27T19:06:36.510Z,2.77
2022-09-27T19:09:06.617Z,3.13
2022-09-27T19:11:34.295Z,2.80
2022-09-27T19:14:04.677Z,3.10
2022-09-27T19:16:34.934Z,3.40
2022-09-27T19:19:02.539Z,4.17
2022-09-27T19:21:29.682Z,2.60
2022-09-27T19:23:59.017Z,2.77
2022-09-27T19:26:27.579Z,3.23
2022-09-27T19:28:54.890Z,3.20
2022-09-27T19:31:23.445Z,3.00
2022-09-27T19:33:53.106Z,3.20
2022-09-27T19:36:24.086Z,3.20
2022-09-27T19:38:53.574Z,3.33
2022-09-27T19:41:21.130Z,3.33
2022-09-27T19:43:52.012Z,3.10
2022-09-27T19:46:19.627Z,3.30
2022-09-27T19:48:46.976Z,4.53
2022-09-27T19:51:15.101Z,3.40
2022-09-27T19:53:44.140Z,3.73
2022-09-27T19:56:11.283Z,3.23
2022-09-27T19:58:39.339Z,3.53
2022-09-27T20:01:10.629Z,3.23
2022-09-27T20:03:38.436Z,3.53
2022-09-27T20:06:06.379Z,3.60
2022-09-27T20:08:33.191Z,3.17
2022-09-27T20:11:05.351Z,3.03
2022-09-27T20:13:33.656Z,3.13
2022-09-27T20:16:04.406Z,2.67
2022-09-27T20:18:31.644Z,2.97
2022-09-27T20:21:03.006Z,2.90
2022-09-27T20:23:32.158Z,3.20
2022-09-27T20:25:59.482Z,2.47
2022-09-27T20:28:27.045Z,2.90
2022-09-27T20:31:00.965Z,2.40
2022-09-27T20:33:47.021Z,2.60
2022-09-27T20:36:28.742Z,2.90
2022-09-27T20:39:03.477Z,2.87
2022-09-27T20:41:31.515Z,2.30
2022-09-27T20:44:03.700Z,2.83
2022-09-27T20:46:32.271Z,2.37
2022-09-27T20:49:00.931Z,2.13
2022-09-27T20:51:28.067Z,2.13
2022-09-27T20:53:56.336Z,2.40
2022-09-27T20:56:24.110Z,2.20
2022-09-27T20:58:52.006Z,2.63
2022-09-27T21:01:25.647Z,2.40
2022-09-27T21:03:56.224Z,2.30
2022-09-27T21:06:24.086Z,2.40
2022-09-27T21:08:52.244Z,2.20
2022-09-27T21:11:19.910Z,2.73
2022-09-27T21:13:48.082Z,2.37
2022-09-27T21:16:19.005Z,2.50
2022-09-27T21:18:48.886Z,2.50
2022-09-27T21:21:16.176Z,2.60
2022-09-27T21:23:45.091Z,2.13
2022-09-27T21:26:12.712Z,1.70
2022-09-27T21:28:40.933Z,1.77
2022-09-27T21:31:13.028Z,1.60
2022-09-27T21:33:40.452Z,1.40
2022-09-27T21:36:08.567Z,1.17
2022-09-27T21:38:36.802Z,1.13
2022-09-27T21:41:08.734Z,1.20
2022-09-27T21:43:37.749Z,1.20
2022-09-27T21:46:05.930Z,1.03
2022-09-27T21:48:34.130Z,1.20
2022-09-27T21:51:04.122Z,1.10
2022-09-27T21:53:31.624Z,0.90
2022-09-27T21:55:58.433Z,0.87
2022-09-27T21:58:25.948Z,0.80
2022-09-27T22:00:52.680Z,1.27
2022-09-27T22:03:20.481Z,0.90
2022-09-27T22:05:48.447Z,0.90
2022-09-27T22:08:15.963Z,0.80
2022-09-27T22:10:44.110Z,0.80
2022-09-27T22:13:11.169Z,0.60
2022-09-27T22:15:38.094Z,0.77
2022-09-27T22:18:05.130Z,0.80
2022-09-27T22:20:34.209Z,0.63
2022-09-27T22:23:03.492Z,0.70
2022-09-27T22:25:30.366Z,0.70
2022-09-27T22:27:59.772Z,0.90
2022-09-27T22:30:28.541Z,0.80
2022-09-27T22:32:57.964Z,0.83
2022-09-27T22:35:27.115Z,0.60
2022-09-27T22:37:53.693Z,0.80
2022-09-27T22:40:20.524Z,0.97
2022-09-27T22:42:47.872Z,0.80
2022-09-27T22:45:15.982Z,1.10
2022-09-27T22:47:42.626Z,0.80
2022-09-27T22:50:10.276Z,0.70
2022-09-27T22:52:37.275Z,0.60
2022-09-27T22:55:04.062Z,0.70
2022-09-27T22:57:30.716Z,0.73
2022-09-27T22:59:57.344Z,0.67
2022-09-27T23:02:23.861Z,0.70
2022-09-27T23:04:50.447Z,0.87
2022-09-27T23:07:17.154Z,0.50
2022-09-27T23:09:43.799Z,0.70
2022-09-27T23:12:10.762Z,0.87
2022-09-27T23:14:42.364Z,0.50
2022-09-27T23:17:09.181Z,0.70
2022-09-27T23:19:36.217Z,0.40
2022-09-27T23:22:03.880Z,0.60
2022-09-27T23:24:30.796Z,0.60
2022-09-27T23:27:17.007Z,0.60
2022-09-27T23:29:44.339Z,0.60
2022-09-27T23:32:11.011Z,0.50
2022-09-27T23:34:37.637Z,0.63
2022-09-27T23:37:04.328Z,0.63
2022-09-27T23:39:31.137Z,0.60
2022-09-27T23:41:57.990Z,0.57
2022-09-27T23:44:25.241Z,0.80
2022-09-27T23:46:54.294Z,0.77
2022-09-27T23:49:21.043Z,0.87
2022-09-27T23:51:47.604Z,0.83
2022-09-27T23:54:15.321Z,0.87
2022-09-27T23:56:41.859Z,0.97
2022-09-27T23:59:08.939Z,0.70
